createdAt,value
2023-05-11T00:00:05.669Z,14.00
2023-05-11T00:01:05.705Z,14.00
2023-05-11T00:02:05.928Z,14.01
2023-05-11T00:03:05.884Z,14.00
2023-05-11T00:04:05.928Z,13.98
2023-05-11T00:05:05.885Z,13.93
2023-05-11T00:06:05.885Z,13.93
2023-05-11T00:07:05.902Z,13.93
2023-05-11T00:08:05.958Z,13.97
2023-05-11T00:09:05.972Z,13.95
2023-05-11T00:10:06.009Z,13.96
2023-05-11T00:11:06.088Z,13.93
2023-05-11T00:12:06.146Z,13.86
2023-05-11T00:13:06.178Z,13.84
2023-05-11T00:14:06.238Z,13.80
2023-05-11T00:15:06.282Z,13.79
2023-05-11T00:16:06.448Z,13.78
2023-05-11T00:17:06.422Z,13.72
2023-05-11T00:18:06.516Z,13.69
2023-05-11T00:19:06.542Z,13.66
2023-05-11T00:20:06.574Z,13.66
2023-05-11T00:21:06.612Z,13.69
2023-05-11T00:22:06.664Z,13.69
2023-05-11T00:23:06.753Z,13.67
2023-05-11T00:24:06.768Z,13.69
2023-05-11T00:25:06.794Z,13.70
2023-05-11T00:26:06.843Z,13.71
2023-05-11T00:27:06.900Z,13.75
2023-05-11T00:28:06.934Z,13.76
2023-05-11T00:29:06.997Z,13.78
2023-05-11T00:30:07.032Z,13.84
2023-05-11T00:31:07.126Z,13.84
2023-05-11T00:32:07.128Z,13.80
2023-05-11T00:33:07.252Z,13.80
2023-05-11T00:34:07.227Z,13.77
2023-05-11T00:35:07.279Z,13.75
2023-05-11T00:36:07.327Z,13.72
2023-05-11T00:37:07.379Z,13.71
2023-05-11T00:38:07.459Z,13.74
2023-05-11T00:39:07.517Z,13.79
2023-05-11T00:40:07.585Z,13.75
2023-05-11T00:41:07.646Z,13.74
2023-05-11T00:42:07.705Z,13.79
2023-05-11T00:43:07.747Z,13.79
2023-05-11T00:44:07.802Z,13.72
2023-05-11T00:45:07.875Z,13.66
2023-05-11T00:46:07.922Z,13.71
2023-05-11T00:47:08.040Z,13.74
2023-05-11T00:48:08.013Z,13.69
2023-05-11T00:49:08.068Z,13.71
2023-05-11T00:50:08.127Z,13.73
2023-05-11T00:51:08.182Z,13.74
2023-05-11T00:52:08.232Z,13.73
2023-05-11T00:53:08.277Z,13.75
2023-05-11T00:54:08.320Z,13.75
2023-05-11T00:55:08.394Z,13.78
2023-05-11T00:56:08.426Z,13.79
2023-05-11T00:57:08.472Z,13.78
2023-05-11T00:58:08.529Z,13.79
2023-05-11T00:59:08.597Z,13.79
2023-05-11T01:00:08.646Z,13.77
2023-05-11T01:01:08.708Z,13.74
2023-05-11T01:02:08.747Z,13.71
2023-05-11T01:03:08.818Z,13.64
2023-05-11T01:04:08.787Z,13.66
2023-05-11T01:05:08.774Z,13.63
2023-05-11T01:06:08.847Z,13.63
2023-05-11T01:07:08.852Z,13.62
2023-05-11T01:08:08.825Z,13.60
2023-05-11T01:09:08.874Z,13.64
2023-05-11T01:10:08.906Z,13.65
2023-05-11T01:11:08.979Z,13.67
2023-05-11T01:12:08.966Z,13.67
2023-05-11T01:13:08.995Z,13.64
2023-05-11T01:14:09.030Z,13.60
2023-05-11T01:15:09.053Z,13.63
2023-05-11T01:16:09.142Z,13.61
2023-05-11T01:17:09.175Z,13.55
2023-05-11T01:18:09.230Z,13.59
2023-05-11T01:19:09.370Z,13.64
2023-05-11T01:20:09.272Z,13.71
2023-05-11T01:21:09.325Z,13.73
2023-05-11T01:22:09.383Z,13.74
2023-05-11T01:23:09.416Z,13.72
2023-05-11T01:24:09.440Z,13.70
2023-05-11T01:25:09.440Z,13.63
2023-05-11T01:26:09.448Z,13.64
2023-05-11T01:27:09.445Z,13.61
2023-05-11T01:28:09.430Z,13.60
2023-05-11T01:29:09.455Z,13.56
2023-05-11T01:30:09.461Z,13.56
2023-05-11T01:31:09.464Z,13.51
2023-05-11T01:32:09.516Z,13.51
2023-05-11T01:33:09.517Z,13.51
2023-05-11T01:34:09.547Z,13.59
2023-05-11T01:35:09.617Z,13.62
2023-05-11T01:36:09.584Z,13.56
2023-05-11T01:37:09.651Z,13.53
2023-05-11T01:38:09.629Z,13.47
2023-05-11T01:39:09.657Z,13.50
2023-05-11T01:40:09.686Z,13.48
2023-05-11T01:41:09.691Z,13.40
2023-05-11T01:42:09.677Z,13.44
2023-05-11T01:43:09.683Z,13.47
2023-05-11T01:44:09.695Z,13.37
2023-05-11T01:45:09.717Z,13.32
2023-05-11T01:46:09.724Z,13.34
2023-05-11T01:47:09.684Z,13.42
2023-05-11T01:48:09.719Z,13.44
2023-05-11T01:49:09.719Z,13.39
2023-05-11T01:50:09.701Z,13.40
2023-05-11T01:51:09.728Z,13.37
2023-05-11T01:52:09.716Z,13.40
2023-05-11T01:53:09.701Z,13.38
2023-05-11T01:54:09.713Z,13.35
2023-05-11T01:55:09.717Z,13.37
2023-05-11T01:56:09.720Z,13.40
2023-05-11T01:57:09.720Z,13.37
2023-05-11T01:58:09.738Z,13.33
2023-05-11T01:59:09.742Z,13.33
2023-05-11T02:00:09.748Z,13.39
2023-05-11T02:01:09.735Z,13.42
2023-05-11T02:02:09.830Z,13.39
2023-05-11T02:03:09.797Z,13.35
2023-05-11T02:04:09.753Z,13.27
2023-05-11T02:05:09.763Z,13.26
2023-05-11T02:06:09.785Z,13.24
2023-05-11T02:07:09.776Z,13.26
2023-05-11T02:08:09.790Z,13.29
2023-05-11T02:09:09.794Z,13.31
2023-05-11T02:10:09.809Z,13.31
2023-05-11T02:11:09.828Z,13.35
2023-05-11T02:12:09.841Z,13.32
2023-05-11T02:13:09.875Z,13.34
2023-05-11T02:14:09.864Z,13.35
2023-05-11T02:15:09.869Z,13.30
2023-05-11T02:16:09.909Z,13.31
2023-05-11T02:17:09.916Z,13.35
2023-05-11T02:18:10.010Z,13.35
2023-05-11T02:19:09.924Z,13.33
2023-05-11T02:20:09.908Z,13.34
2023-05-11T02:21:09.929Z,13.32
2023-05-11T02:22:09.946Z,13.31
2023-05-11T02:23:09.963Z,13.27
2023-05-11T02:24:09.976Z,13.23
2023-05-11T02:25:10.016Z,13.22
2023-05-11T02:26:10.004Z,13.20
2023-05-11T02:27:10.030Z,13.16
2023-05-11T02:28:10.013Z,13.20
2023-05-11T02:29:10.022Z,13.16
2023-05-11T02:30:10.034Z,13.19
2023-05-11T02:31:10.083Z,13.23
2023-05-11T02:32:10.084Z,13.25
2023-05-11T02:33:10.118Z,13.24
2023-05-11T02:34:10.127Z,13.21
2023-05-11T02:35:10.182Z,13.22
2023-05-11T02:36:10.200Z,13.17
2023-05-11T02:37:10.233Z,13.13
2023-05-11T02:38:10.248Z,13.12
2023-05-11T02:39:10.290Z,13.11
2023-05-11T02:40:10.349Z,13.10
2023-05-11T02:41:10.352Z,13.11
2023-05-11T02:42:10.365Z,13.07
2023-05-11T02:43:10.394Z,13.07
2023-05-11T02:44:10.428Z,13.07
2023-05-11T02:45:10.475Z,13.10
2023-05-11T02:46:10.571Z,13.04
2023-05-11T02:47:10.540Z,13.07
2023-05-11T02:48:10.714Z,13.10
2023-05-11T02:49:10.643Z,13.11
2023-05-11T02:50:10.699Z,13.10
2023-05-11T02:51:10.721Z,13.10
2023-05-11T02:52:10.755Z,13.13
2023-05-11T02:53:10.788Z,13.13
2023-05-11T02:54:10.827Z,13.10
2023-05-11T02:55:10.891Z,13.11
2023-05-11T02:56:10.883Z,13.12
2023-05-11T02:57:10.891Z,13.13
2023-05-11T02:58:10.955Z,13.17
2023-05-11T02:59:10.966Z,13.17
2023-05-11T03:00:11.025Z,13.17
2023-05-11T03:01:11.098Z,13.19
2023-05-11T03:02:11.240Z,13.18
2023-05-11T03:03:11.192Z,13.23
2023-05-11T03:04:11.138Z,13.19
2023-05-11T03:05:11.187Z,13.19
2023-05-11T03:06:11.190Z,13.19
2023-05-11T03:07:11.246Z,13.19
2023-05-11T03:08:11.249Z,13.18
2023-05-11T03:09:11.279Z,13.17
2023-05-11T03:10:11.342Z,13.08
2023-05-11T03:11:11.374Z,13.02
2023-05-11T03:12:11.416Z,13.02
2023-05-11T03:13:11.440Z,12.98
2023-05-11T03:14:11.480Z,13.00
2023-05-11T03:15:11.514Z,13.01
2023-05-11T03:16:11.579Z,13.00
2023-05-11T03:17:11.613Z,13.00
2023-05-11T03:18:11.654Z,13.02
2023-05-11T03:19:11.692Z,13.01
2023-05-11T03:20:11.744Z,13.03
2023-05-11T03:21:11.762Z,13.01
2023-05-11T03:22:11.813Z,13.02
2023-05-11T03:23:11.855Z,13.06
2023-05-11T03:24:11.871Z,13.07
2023-05-11T03:25:11.898Z,13.09
2023-05-11T03:26:11.941Z,13.05
2023-05-11T03:27:11.950Z,12.97
2023-05-11T03:28:11.980Z,12.98
2023-05-11T03:29:11.990Z,13.00
2023-05-11T03:30:12.108Z,13.03
2023-05-11T03:31:12.005Z,13.01
2023-05-11T03:32:12.094Z,12.94
2023-05-11T03:33:12.111Z,12.91
2023-05-11T03:34:12.138Z,12.89
2023-05-11T03:35:12.171Z,12.92
2023-05-11T03:36:12.203Z,12.95
2023-05-11T03:37:12.259Z,12.96
2023-05-11T03:38:12.302Z,12.96
2023-05-11T03:39:12.371Z,12.94
2023-05-11T03:40:12.409Z,12.96
2023-05-11T03:41:12.431Z,12.99
2023-05-11T03:42:12.498Z,13.01
2023-05-11T03:43:12.535Z,12.99
2023-05-11T03:44:12.600Z,13.01
2023-05-11T03:45:12.618Z,13.03
2023-05-11T03:46:12.720Z,13.03
2023-05-11T03:47:12.662Z,13.02
2023-05-11T03:48:12.671Z,12.98
2023-05-11T03:49:13.839Z,13.00
2023-05-11T03:50:12.715Z,12.97
2023-05-11T03:51:12.734Z,12.99
2023-05-11T03:52:12.746Z,13.01
2023-05-11T03:53:12.798Z,13.04
2023-05-11T03:54:12.826Z,13.05
2023-05-11T03:55:12.860Z,13.03
2023-05-11T03:56:12.890Z,13.07
2023-05-11T03:57:12.939Z,13.08
2023-05-11T03:58:12.977Z,13.02
2023-05-11T03:59:13.001Z,12.98
2023-05-11T04:00:13.062Z,12.99
2023-05-11T04:01:13.108Z,12.98
2023-05-11T04:02:13.200Z,12.98
2023-05-11T04:03:13.195Z,12.91
2023-05-11T04:04:13.265Z,12.92
2023-05-11T04:05:13.262Z,12.97
2023-05-11T04:06:13.277Z,12.99
2023-05-11T04:07:13.328Z,13.02
2023-05-11T04:08:13.365Z,12.98
2023-05-11T04:09:13.408Z,12.97
2023-05-11T04:10:13.451Z,12.98
2023-05-11T04:11:13.458Z,13.02
2023-05-11T04:12:13.496Z,13.02
2023-05-11T04:13:13.525Z,12.99
2023-05-11T04:14:13.558Z,12.97
2023-05-11T04:15:13.588Z,13.02
2023-05-11T04:16:13.623Z,13.06
2023-05-11T04:17:13.628Z,13.07
2023-05-11T04:18:13.659Z,13.06
2023-05-11T04:19:13.692Z,13.06
2023-05-11T04:20:13.721Z,13.02
2023-05-11T04:21:13.759Z,13.04
2023-05-11T04:22:13.797Z,13.05
2023-05-11T04:23:13.790Z,13.02
2023-05-11T04:24:13.822Z,13.05
2023-05-11T04:25:13.844Z,13.02
2023-05-11T04:26:13.893Z,13.01
2023-05-11T04:27:13.913Z,13.05
2023-05-11T04:28:13.945Z,13.06
2023-05-11T04:29:13.987Z,13.09
2023-05-11T04:30:14.051Z,13.09
2023-05-11T04:31:14.117Z,13.04
2023-05-11T04:32:14.128Z,13.00
2023-05-11T04:33:14.176Z,13.00
2023-05-11T04:34:14.213Z,13.02
2023-05-11T04:35:14.268Z,13.06
2023-05-11T04:36:14.310Z,13.03
2023-05-11T04:37:14.335Z,13.00
2023-05-11T04:38:14.400Z,12.93
2023-05-11T04:39:14.413Z,12.92
2023-05-11T04:40:14.456Z,12.92
2023-05-11T04:41:14.499Z,12.99
2023-05-11T04:42:14.551Z,13.02
2023-05-11T04:43:14.591Z,13.03
2023-05-11T04:44:14.643Z,13.02
2023-05-11T04:45:14.692Z,12.98
2023-05-11T04:46:14.787Z,13.01
2023-05-11T04:47:14.775Z,13.04
2023-05-11T04:48:14.812Z,13.04
2023-05-11T04:49:14.884Z,13.02
2023-05-11T04:50:14.898Z,12.97
2023-05-11T04:51:14.965Z,12.94
2023-05-11T04:52:15.021Z,12.90
2023-05-11T04:53:15.084Z,12.93
2023-05-11T04:54:15.132Z,12.96
2023-05-11T04:55:15.178Z,12.93
2023-05-11T04:56:15.254Z,12.90
2023-05-11T04:57:15.312Z,12.86
2023-05-11T04:58:15.353Z,12.88
2023-05-11T04:59:15.454Z,12.93
2023-05-11T05:00:15.688Z,12.95
2023-05-11T05:01:15.611Z,12.95
2023-05-11T05:02:15.595Z,12.97
2023-05-11T05:03:15.686Z,12.95
2023-05-11T05:04:15.794Z,12.91
2023-05-11T05:05:15.744Z,12.92
2023-05-11T05:06:15.799Z,12.95
2023-05-11T05:07:15.846Z,12.94
2023-05-11T05:08:15.870Z,12.93
2023-05-11T05:09:15.935Z,12.92
2023-05-11T05:10:16.093Z,12.91
2023-05-11T05:11:16.011Z,12.96
2023-05-11T05:12:16.035Z,13.01
2023-05-11T05:13:16.062Z,13.01
2023-05-11T05:14:16.068Z,13.03
2023-05-11T05:15:16.109Z,13.04
2023-05-11T05:16:16.182Z,13.06
2023-05-11T05:17:16.170Z,13.05
2023-05-11T05:18:16.213Z,13.00
2023-05-11T05:19:16.252Z,12.98
2023-05-11T05:20:16.466Z,12.95
2023-05-11T05:21:16.355Z,12.94
2023-05-11T05:22:16.417Z,12.91
2023-05-11T05:23:16.478Z,12.95
2023-05-11T05:24:16.551Z,12.98
2023-05-11T05:25:16.572Z,13.04
2023-05-11T05:26:16.658Z,13.06
2023-05-11T05:27:16.674Z,13.08
2023-05-11T05:28:16.689Z,13.08
2023-05-11T05:29:16.750Z,13.01
2023-05-11T05:30:17.255Z,13.05
2023-05-11T05:31:17.020Z,13.08
2023-05-11T05:32:16.921Z,13.07
2023-05-11T05:33:17.477Z,13.06
2023-05-11T05:34:16.960Z,13.05
2023-05-11T05:35:17.128Z,13.10
2023-05-11T05:36:17.041Z,13.10
2023-05-11T05:37:17.093Z,13.15
2023-05-11T05:38:17.195Z,13.15
2023-05-11T05:39:17.152Z,13.11
2023-05-11T05:40:17.777Z,13.11
2023-05-11T05:41:17.210Z,13.12
2023-05-11T05:42:17.226Z,13.12
2023-05-11T05:43:17.248Z,13.06
2023-05-11T05:44:17.305Z,13.06
2023-05-11T05:45:17.654Z,13.07
2023-05-11T05:46:17.396Z,13.06
2023-05-11T05:47:17.432Z,13.04
2023-05-11T05:48:17.458Z,13.05
2023-05-11T05:49:17.535Z,13.07
2023-05-11T05:50:17.773Z,13.04
2023-05-11T05:51:17.579Z,13.02
2023-05-11T05:52:17.690Z,13.01
2023-05-11T05:53:17.676Z,13.05
2023-05-11T05:54:17.681Z,13.08
2023-05-11T05:55:17.726Z,13.09
2023-05-11T05:56:17.760Z,13.09
2023-05-11T05:57:17.800Z,13.08
2023-05-11T05:58:17.839Z,13.08
2023-05-11T05:59:17.870Z,13.06
2023-05-11T06:00:18.094Z,13.03
2023-05-11T06:01:17.987Z,13.00
2023-05-11T06:02:18.035Z,13.01
2023-05-11T06:03:18.161Z,13.02
2023-05-11T06:04:18.237Z,13.03
2023-05-11T06:05:18.151Z,13.05
2023-05-11T06:06:18.180Z,13.05
2023-05-11T06:07:18.242Z,13.00
2023-05-11T06:08:18.313Z,12.91
2023-05-11T06:09:18.394Z,12.83
2023-05-11T06:10:18.603Z,12.83
2023-05-11T06:11:18.477Z,12.87
2023-05-11T06:12:18.522Z,12.89
2023-05-11T06:13:18.561Z,12.88
2023-05-11T06:14:18.619Z,12.93
2023-05-11T06:15:18.669Z,12.97
2023-05-11T06:16:18.726Z,13.02
2023-05-11T06:17:18.713Z,13.04
2023-05-11T06:18:18.791Z,13.11
2023-05-11T06:19:18.750Z,13.14
2023-05-11T06:20:18.940Z,13.16
2023-05-11T06:21:19.159Z,13.16
2023-05-11T06:22:18.848Z,13.16
2023-05-11T06:23:19.184Z,13.11
2023-05-11T06:24:19.070Z,13.10
2023-05-11T06:25:19.186Z,13.11
2023-05-11T06:26:19.000Z,13.16
2023-05-11T06:27:19.007Z,13.17
2023-05-11T06:28:19.066Z,13.15
2023-05-11T06:29:19.130Z,13.16
2023-05-11T06:30:19.309Z,13.13
2023-05-11T06:31:19.181Z,13.07
2023-05-11T06:32:19.177Z,13.11
2023-05-11T06:33:19.178Z,13.13
2023-05-11T06:34:19.238Z,13.11
2023-05-11T06:35:19.681Z,13.14
2023-05-11T06:36:19.642Z,13.19
2023-05-11T06:37:19.292Z,13.21
2023-05-11T06:38:19.347Z,13.26
2023-05-11T06:39:19.359Z,13.26
2023-05-11T06:40:19.593Z,13.26
2023-05-11T06:41:19.713Z,13.27
2023-05-11T06:42:19.424Z,13.27
2023-05-11T06:43:19.431Z,13.26
2023-05-11T06:44:19.464Z,13.28
2023-05-11T06:45:19.511Z,13.26
2023-05-11T06:46:19.749Z,13.27
2023-05-11T06:47:19.514Z,13.19
2023-05-11T06:48:19.553Z,13.16
2023-05-11T06:49:19.583Z,13.20
2023-05-11T06:50:21.305Z,13.22
2023-05-11T06:51:19.653Z,13.11
2023-05-11T06:52:19.655Z,13.11
2023-05-11T06:53:19.675Z,13.11
2023-05-11T06:54:19.726Z,13.15
2023-05-11T06:55:19.713Z,13.18
2023-05-11T06:56:20.138Z,13.18
2023-05-11T06:57:19.775Z,13.21
2023-05-11T06:58:19.806Z,13.19
2023-05-11T06:59:19.835Z,13.17
2023-05-11T07:00:20.063Z,13.21
2023-05-11T07:01:20.854Z,13.27
2023-05-11T07:02:19.847Z,13.32
2023-05-11T07:03:19.900Z,13.36
2023-05-11T07:04:19.950Z,13.32
2023-05-11T07:05:19.910Z,13.32
2023-05-11T07:06:19.957Z,13.28
2023-05-11T07:07:19.957Z,13.28
2023-05-11T07:08:19.951Z,13.28
2023-05-11T07:09:20.008Z,13.31
2023-05-11T07:10:20.244Z,13.36
2023-05-11T07:11:20.170Z,13.37
2023-05-11T07:12:20.047Z,13.42
2023-05-11T07:13:20.227Z,13.43
2023-05-11T07:14:20.204Z,13.44
2023-05-11T07:15:20.208Z,13.44
2023-05-11T07:16:20.716Z,13.46
2023-05-11T07:17:20.370Z,13.45
2023-05-11T07:18:20.412Z,13.42
2023-05-11T07:19:20.398Z,13.46
2023-05-11T07:20:20.719Z,13.49
2023-05-11T07:21:20.660Z,13.50
2023-05-11T07:22:20.513Z,13.57
2023-05-11T07:23:20.483Z,13.56
2023-05-11T07:24:20.493Z,13.54
2023-05-11T07:25:20.474Z,13.56
2023-05-11T07:26:20.740Z,13.59
2023-05-11T07:27:20.556Z,13.59
2023-05-11T07:28:20.557Z,13.60
2023-05-11T07:29:20.584Z,13.59
2023-05-11T07:30:21.009Z,13.56
2023-05-11T07:31:21.240Z,13.64
2023-05-11T07:32:20.765Z,13.63
2023-05-11T07:33:20.772Z,13.62
2023-05-11T07:34:20.889Z,13.63
2023-05-11T07:35:22.096Z,13.60
2023-05-11T07:36:21.167Z,13.63
2023-05-11T07:37:21.007Z,13.64
2023-05-11T07:38:21.100Z,13.65
2023-05-11T07:39:21.187Z,13.68
2023-05-11T07:40:21.466Z,13.68
2023-05-11T07:41:21.203Z,13.68
2023-05-11T07:42:22.156Z,13.64
2023-05-11T07:43:21.195Z,13.61
2023-05-11T07:44:21.208Z,13.58
2023-05-11T07:45:21.300Z,13.61
2023-05-11T07:46:21.254Z,13.61
2023-05-11T07:47:21.238Z,13.63
2023-05-11T07:48:21.197Z,13.67
2023-05-11T07:49:31.118Z,13.68
2023-05-11T07:50:24.457Z,13.71
2023-05-11T07:51:21.209Z,13.72
2023-05-11T07:52:21.217Z,13.67
2023-05-11T07:53:21.242Z,13.70
2023-05-11T07:54:21.888Z,13.77
2023-05-11T07:55:21.373Z,13.83
2023-05-11T07:56:21.188Z,13.84
2023-05-11T07:57:21.153Z,13.86
2023-05-11T07:58:21.172Z,13.85
2023-05-11T07:59:21.178Z,13.86
2023-05-11T08:00:21.197Z,13.89
2023-05-11T08:01:21.183Z,13.94
2023-05-11T08:02:21.314Z,13.92
2023-05-11T08:03:21.119Z,13.91
2023-05-11T08:04:21.083Z,13.88
2023-05-11T08:05:21.241Z,13.82
2023-05-11T08:06:21.323Z,13.79
2023-05-11T08:07:21.061Z,13.80
2023-05-11T08:08:21.061Z,13.78
2023-05-11T08:09:21.060Z,13.81
2023-05-11T08:10:21.095Z,13.84
2023-05-11T08:11:21.080Z,13.82
2023-05-11T08:12:21.081Z,13.84
2023-05-11T08:13:21.028Z,13.86
2023-05-11T08:14:21.046Z,13.86
2023-05-11T08:15:21.177Z,13.89
2023-05-11T08:16:21.227Z,13.91
2023-05-11T08:17:20.985Z,13.94
2023-05-11T08:18:21.099Z,13.95
2023-05-11T08:19:21.003Z,13.96
2023-05-11T08:20:21.185Z,13.99
2023-05-11T08:21:21.055Z,14.03
2023-05-11T08:22:21.073Z,13.99
2023-05-11T08:23:21.120Z,13.99
2023-05-11T08:24:21.198Z,13.88
2023-05-11T08:25:21.672Z,13.92
2023-05-11T08:26:21.279Z,13.96
2023-05-11T08:27:21.352Z,13.96
2023-05-11T08:28:21.440Z,14.02
2023-05-11T08:29:21.466Z,14.06
2023-05-11T08:30:21.559Z,14.04
2023-05-11T08:31:21.647Z,14.06
2023-05-11T08:32:21.715Z,14.08
2023-05-11T08:33:36.444Z,14.10
2023-05-11T08:34:22.730Z,14.11
2023-05-11T08:35:22.088Z,14.13
2023-05-11T08:36:21.699Z,14.12
2023-05-11T08:37:21.699Z,14.07
2023-05-11T08:38:21.698Z,14.10
2023-05-11T08:39:38.954Z,14.16
2023-05-11T08:40:22.735Z,14.16
2023-05-11T08:41:21.682Z,14.11
2023-05-11T08:42:21.643Z,14.12
2023-05-11T08:43:21.645Z,14.17
2023-05-11T08:44:21.689Z,14.21
2023-05-11T08:45:21.626Z,14.27
2023-05-11T08:46:21.668Z,14.29
2023-05-11T08:47:23.773Z,14.26
2023-05-11T08:48:21.629Z,14.27
2023-05-11T08:49:21.685Z,14.21
2023-05-11T08:50:21.760Z,14.23
2023-05-11T08:51:22.169Z,14.22
2023-05-11T08:52:21.817Z,14.25
2023-05-11T08:53:21.802Z,14.23
2023-05-11T08:54:21.882Z,14.25
2023-05-11T08:55:21.875Z,14.28
2023-05-11T08:56:22.184Z,14.28
2023-05-11T08:57:21.952Z,14.34
2023-05-11T08:58:21.994Z,14.33
2023-05-11T08:59:22.002Z,14.41
2023-05-11T09:00:22.023Z,14.44
2023-05-11T09:01:22.217Z,14.44
2023-05-11T09:02:22.125Z,14.46
2023-05-11T09:03:22.084Z,14.41
2023-05-11T09:04:22.084Z,14.45
2023-05-11T09:05:22.283Z,14.43
2023-05-11T09:06:22.181Z,14.31
2023-05-11T09:07:22.149Z,14.36
2023-05-11T09:08:22.162Z,14.43
2023-05-11T09:09:22.159Z,14.46
2023-05-11T09:10:22.158Z,14.47
2023-05-11T09:11:22.171Z,14.46
2023-05-11T09:12:22.197Z,14.47
2023-05-11T09:13:22.263Z,14.46
2023-05-11T09:14:27.160Z,14.46
2023-05-11T09:15:23.240Z,14.46
2023-05-11T09:16:36.392Z,14.45
2023-05-11T09:17:23.284Z,14.41
2023-05-11T09:18:22.240Z,14.38
2023-05-11T09:19:22.205Z,14.34
2023-05-11T09:20:22.269Z,14.38
2023-05-11T09:21:22.290Z,14.38
2023-05-11T09:22:22.219Z,14.41
2023-05-11T09:23:22.195Z,14.41
2023-05-11T09:24:22.172Z,14.43
2023-05-11T09:25:22.182Z,14.36
2023-05-11T09:26:22.218Z,14.37
2023-05-11T09:27:22.147Z,14.37
2023-05-11T09:28:25.404Z,14.36
2023-05-11T09:29:22.180Z,14.34
2023-05-11T09:30:23.139Z,14.29
2023-05-11T09:31:22.130Z,14.25
2023-05-11T09:32:22.204Z,14.25
2023-05-11T09:33:22.095Z,14.28
2023-05-11T09:34:22.124Z,14.32
2023-05-11T09:35:22.333Z,14.33
2023-05-11T09:36:22.103Z,14.34
2023-05-11T09:37:22.085Z,14.34
2023-05-11T09:38:22.065Z,14.29
2023-05-11T09:40:27.375Z,14.30
2023-05-11T09:41:23.075Z,14.32
2023-05-11T09:42:22.065Z,14.34
2023-05-11T09:43:22.043Z,14.30
2023-05-11T09:44:22.038Z,14.29
2023-05-11T09:45:22.015Z,14.30
2023-05-11T09:46:22.031Z,14.32
2023-05-11T09:47:22.227Z,14.32
2023-05-11T09:48:22.171Z,14.34
2023-05-11T09:49:21.990Z,14.35
2023-05-11T09:50:26.346Z,14.38
2023-05-11T09:51:22.017Z,14.35
2023-05-11T09:52:22.215Z,14.36
2023-05-11T09:53:22.006Z,14.40
2023-05-11T09:54:21.954Z,14.43
2023-05-11T09:55:21.960Z,14.43
2023-05-11T09:56:21.957Z,14.41
2023-05-11T09:57:21.947Z,14.37
2023-05-11T09:58:21.950Z,14.32
2023-05-11T09:59:21.947Z,14.32
2023-05-11T10:00:21.916Z,14.27
2023-05-11T10:01:21.934Z,14.28
2023-05-11T10:02:21.933Z,14.33
2023-05-11T10:03:22.079Z,14.39
2023-05-11T10:04:23.776Z,14.40
2023-05-11T10:05:21.878Z,14.42
2023-05-11T10:06:21.904Z,14.40
2023-05-11T10:07:21.879Z,14.35
2023-05-11T10:08:21.873Z,14.35
2023-05-11T10:09:21.907Z,14.33
2023-05-11T10:10:21.942Z,14.35
2023-05-11T10:11:23.155Z,14.37
2023-05-11T10:12:21.997Z,14.36
2023-05-11T10:13:22.032Z,14.37
2023-05-11T10:14:22.085Z,14.40
2023-05-11T10:15:22.117Z,14.39
2023-05-11T10:16:22.192Z,14.42
2023-05-11T10:17:22.175Z,14.41
2023-05-11T10:18:22.360Z,14.41
2023-05-11T10:19:22.221Z,14.38
2023-05-11T10:20:22.266Z,14.38
2023-05-11T10:21:22.306Z,14.42
2023-05-11T10:22:22.374Z,14.47
2023-05-11T10:23:22.321Z,14.47
2023-05-11T10:24:22.409Z,14.50
2023-05-11T10:25:22.316Z,14.53
2023-05-11T10:26:22.340Z,14.52
2023-05-11T10:27:22.355Z,14.50
2023-05-11T10:28:22.379Z,14.54
2023-05-11T10:29:22.378Z,14.45
2023-05-11T10:30:22.497Z,14.45
2023-05-11T10:31:22.469Z,14.46
2023-05-11T10:32:22.458Z,14.49
2023-05-11T10:33:22.405Z,14.48
2023-05-11T10:34:22.641Z,14.49
2023-05-11T10:35:22.416Z,14.50
2023-05-11T10:36:22.440Z,14.54
2023-05-11T10:37:22.494Z,14.52
2023-05-11T10:38:22.608Z,14.53
2023-05-11T10:39:22.462Z,14.53
2023-05-11T10:40:22.500Z,14.57
2023-05-11T10:41:22.485Z,14.60
2023-05-11T10:42:22.566Z,14.59
2023-05-11T10:43:22.518Z,14.57
2023-05-11T10:44:22.521Z,14.56
2023-05-11T10:45:22.551Z,14.52
2023-05-11T10:46:22.583Z,14.55
2023-05-11T10:47:22.574Z,14.52
2023-05-11T10:48:22.547Z,14.47
2023-05-11T10:49:22.555Z,14.48
2023-05-11T10:50:22.688Z,14.52
2023-05-11T10:51:22.576Z,14.52
2023-05-11T10:52:22.634Z,14.52
2023-05-11T10:53:22.619Z,14.51
2023-05-11T10:54:22.621Z,14.49
2023-05-11T10:55:22.646Z,14.45
2023-05-11T10:56:22.646Z,14.47
2023-05-11T10:57:22.694Z,14.40
2023-05-11T10:58:22.695Z,14.43
2023-05-11T10:59:22.713Z,14.47
2023-05-11T11:00:22.850Z,14.50
2023-05-11T11:01:22.771Z,14.56
2023-05-11T11:02:22.810Z,14.56
2023-05-11T11:03:22.770Z,14.62
2023-05-11T11:04:22.763Z,14.63
2023-05-11T11:05:22.858Z,14.65
2023-05-11T11:06:22.801Z,14.65
2023-05-11T11:07:23.217Z,14.58
2023-05-11T11:08:24.343Z,14.58
2023-05-11T11:09:22.828Z,14.53
2023-05-11T11:10:22.853Z,14.56
2023-05-11T11:11:23.093Z,14.57
2023-05-11T11:12:22.923Z,14.68
2023-05-11T11:13:22.898Z,14.71
2023-05-11T11:14:22.878Z,14.77
2023-05-11T11:15:22.891Z,14.79
2023-05-11T11:16:22.927Z,14.81
2023-05-11T11:17:22.858Z,14.84
2023-05-11T11:18:22.886Z,14.76
2023-05-11T11:19:22.872Z,14.76
2023-05-11T11:20:22.885Z,14.74
2023-05-11T11:21:24.032Z,14.77
2023-05-11T11:22:22.841Z,14.82
2023-05-11T11:23:22.826Z,14.83
2023-05-11T11:24:22.821Z,14.82
2023-05-11T11:25:22.824Z,14.83
2023-05-11T11:26:22.801Z,14.86
2023-05-11T11:27:25.116Z,14.85
2023-05-11T11:28:22.823Z,14.87
2023-05-11T11:29:22.801Z,14.89
2023-05-11T11:30:22.819Z,14.94
2023-05-11T11:31:22.837Z,14.95
2023-05-11T11:32:22.798Z,14.89
2023-05-11T11:33:22.772Z,14.87
2023-05-11T11:34:22.769Z,14.87
2023-05-11T11:35:22.747Z,14.87
2023-05-11T11:36:22.748Z,14.93
2023-05-11T11:37:22.729Z,14.91
2023-05-11T11:38:22.716Z,14.95
2023-05-11T11:39:22.726Z,14.88
2023-05-11T11:40:22.702Z,14.88
2023-05-11T11:41:22.720Z,14.90
2023-05-11T11:42:22.693Z,14.95
2023-05-11T11:43:22.704Z,14.93
2023-05-11T11:44:22.775Z,14.95
2023-05-11T11:45:22.685Z,15.02
2023-05-11T11:46:22.704Z,15.05
2023-05-11T11:47:22.761Z,15.06
2023-05-11T11:48:22.748Z,15.05
2023-05-11T11:49:22.801Z,15.12
2023-05-11T11:50:22.842Z,15.16
2023-05-11T11:51:22.937Z,15.16
2023-05-11T11:52:22.980Z,15.17
2023-05-11T11:53:23.021Z,15.12
2023-05-11T11:54:23.089Z,15.13
2023-05-11T11:55:23.138Z,15.18
2023-05-11T11:56:23.169Z,15.21
2023-05-11T11:57:23.232Z,15.23
2023-05-11T11:58:23.241Z,15.29
2023-05-11T11:59:23.271Z,15.29
2023-05-11T12:00:23.330Z,15.38
2023-05-11T12:01:23.313Z,15.42
2023-05-11T12:02:23.380Z,15.50
2023-05-11T12:03:23.409Z,15.53
2023-05-11T12:04:23.523Z,15.40
2023-05-11T12:05:23.968Z,15.42
2023-05-11T12:06:25.094Z,15.43
2023-05-11T12:07:23.329Z,15.46
2023-05-11T12:08:23.348Z,15.51
2023-05-11T12:09:23.343Z,15.57
2023-05-11T12:10:23.332Z,15.57
2023-05-11T12:11:23.300Z,15.59
2023-05-11T12:12:23.307Z,15.65
2023-05-11T12:13:23.306Z,15.66
2023-05-11T12:14:23.305Z,15.72
2023-05-11T12:15:23.285Z,15.69
2023-05-11T12:16:23.293Z,15.66
2023-05-11T12:17:23.335Z,15.59
2023-05-11T12:18:23.325Z,15.62
2023-05-11T12:19:23.253Z,15.73
2023-05-11T12:20:23.249Z,15.80
2023-05-11T12:21:23.245Z,15.86
2023-05-11T12:22:23.251Z,15.89
2023-05-11T12:23:23.226Z,15.95
2023-05-11T12:24:23.238Z,16.04
2023-05-11T12:25:23.663Z,16.11
2023-05-11T12:26:23.178Z,16.16
2023-05-11T12:27:23.188Z,16.14
2023-05-11T12:28:23.182Z,16.15
2023-05-11T12:29:23.181Z,16.18
2023-05-11T12:30:23.163Z,16.17
2023-05-11T12:31:23.790Z,16.25
2023-05-11T12:32:23.191Z,16.28
2023-05-11T12:33:23.175Z,16.27
2023-05-11T12:34:23.142Z,16.25
2023-05-11T12:35:23.123Z,16.21
2023-05-11T12:36:23.120Z,16.15
2023-05-11T12:37:23.104Z,16.15
2023-05-11T12:38:23.089Z,16.17
2023-05-11T12:39:23.102Z,16.22
2023-05-11T12:40:23.069Z,16.26
2023-05-11T12:41:23.093Z,16.27
2023-05-11T12:42:23.077Z,16.24
2023-05-11T12:43:23.083Z,16.21
2023-05-11T12:44:23.060Z,16.27
2023-05-11T12:45:23.055Z,16.29
2023-05-11T12:46:23.096Z,16.28
2023-05-11T12:47:23.068Z,16.27
2023-05-11T12:48:23.037Z,16.30
2023-05-11T12:49:26.798Z,16.28
2023-05-11T12:50:23.104Z,16.26
2023-05-11T12:51:23.012Z,16.27
2023-05-11T12:52:23.014Z,16.24
2023-05-11T12:53:23.015Z,16.18